Time;durP1;ratioP1;P1;durP2;ratioP2;P2;SDS_P1;SDS_P2;PMS_P1;PMS_P2;Temp;Humidity;BMP_temperature;BMP_pressure;BME280_temperature;BME280_humidity;BME280_pressure;Samples;Min_cycle;Max_cycle;Signal;HPM_P1;HPM_P2
2021/05/13 00:01:11;;;;;;;2.40;1.00;;;10.50;72.30;;;;;;4999124;28;20035;-76
2021/05/13 00:03:37;;;;;;;3.47;1.08;;;10.50;72.40;;;;;;4998644;28;20552;-76
2021/05/13 00:06:04;;;;;;;2.42;1.00;;;10.50;72.10;;;;;;4999277;28;20030;-76
2021/05/13 00:08:30;;;;;;;3.88;1.33;;;10.50;72.10;;;;;;4998845;28;20022;-76
2021/05/13 00:11:06;;;;;;;2.45;1.10;;;10.50;72.20;;;;;;4999005;28;20022;-75
2021/05/13 00:13:37;;;;;;;1.75;1.00;;;10.50;71.90;;;;;;4998758;28;20054;-76
2021/05/13 00:16:04;;;;;;;1.52;1.00;;;10.50;71.70;;;;;;4998835;28;20027;-75
2021/05/13 00:18:30;;;;;;;3.15;1.08;;;10.50;72.30;;;;;;4998467;28;20803;-75
2021/05/13 00:20:57;;;;;;;3.15;1.25;;;10.50;71.90;;;;;;4999046;28;20026;-76
2021/05/13 00:23:23;;;;;;;2.15;1.20;;;10.50;72.30;;;;;;4997889;28;21021;-75
2021/05/13 00:25:51;;;;;;;2.55;1.00;;;10.50;72.50;;;;;;4998776;28;20050;-75
2021/05/13 00:28:18;;;;;;;4.20;1.40;;;10.50;73.00;;;;;;4998623;28;20089;-76
2021/05/13 00:30:44;;;;;;;3.22;1.23;;;10.40;73.20;;;;;;4980990;28;20088;-75
2021/05/13 00:33:11;;;;;;;2.83;1.08;;;10.40;73.40;;;;;;4997999;28;20026;-76
2021/05/13 00:35:37;;;;;;;2.70;1.38;;;10.40;73.90;;;;;;4998770;28;20026;-75
2021/05/13 00:38:03;;;;;;;2.88;1.00;;;10.40;73.50;;;;;;4986120;28;20538;-75
2021/05/13 00:40:29;;;;;;;3.05;1.05;;;10.30;73.10;;;;;;4998431;28;20022;-76
2021/05/13 00:42:55;;;;;;;3.10;1.00;;;10.30;73.00;;;;;;4998127;28;20061;-76
2021/05/13 00:45:22;;;;;;;2.60;1.25;;;10.30;73.00;;;;;;4998146;28;20033;-76
2021/05/13 00:48:15;;;;;;;2.85;1.40;;;10.30;73.90;;;;;;4998167;28;20400;-76
2021/05/13 00:50:35;;;;;;;2.75;1.10;;;10.30;73.50;;;;;;4997372;28;20038;-76
2021/05/13 00:53:08;;;;;;;3.67;1.30;;;10.30;73.80;;;;;;4998339;28;20084;-76
2021/05/13 00:55:35;;;;;;;4.22;1.30;;;10.30;73.80;;;;;;4998294;28;20058;-76
2021/05/13 00:58:02;;;;;;;2.60;1.13;;;10.30;73.10;;;;;;4998216;28;20026;-76
2021/05/13 01:00:39;;;;;;;2.00;1.10;;;10.30;73.40;;;;;;4998013;28;20030;-76
2021/05/13 01:03:05;;;;;;;2.47;1.10;;;10.30;72.80;;;;;;4997157;28;20101;-76
2021/05/13 01:05:33;;;;;;;2.85;1.10;;;10.30;72.40;;;;;;4997800;28;20508;-76
2021/05/13 01:08:01;;;;;;;3.42;1.13;;;10.30;72.40;;;;;;4998235;28;20030;-76
2021/05/13 01:10:28;;;;;;;2.22;1.00;;;10.30;72.00;;;;;;4997847;28;20038;-76
2021/05/13 01:12:58;;;;;;;2.42;1.00;;;10.30;71.80;;;;;;4997930;28;20064;-76
2021/05/13 01:15:27;;;;;;;2.08;0.98;;;10.40;71.60;;;;;;4997622;28;20117;-76
2021/05/13 01:18:15;;;;;;;1.85;0.95;;;10.30;71.20;;;;;;4997787;28;20035;-76
2021/05/13 01:20:40;;;;;;;1.40;0.85;;;10.30;71.00;;;;;;4987222;28;20042;-76
2021/05/13 01:23:10;;;;;;;1.90;0.90;;;10.30;70.80;;;;;;4997353;28;20073;-76
2021/05/13 01:25:53;;;;;;;1.77;0.90;;;10.30;70.80;;;;;;4998004;28;20034;-76
2021/05/13 01:28:22;;;;;;;1.02;0.80;;;10.40;70.80;;;;;;4997773;28;20034;-76
2021/05/13 01:30:50;;;;;;;1.33;0.80;;;10.40;70.70;;;;;;4997770;28;20030;-76
2021/05/13 01:33:22;;;;;;;1.67;0.90;;;10.40;70.70;;;;;;4997538;28;20061;-75
2021/05/13 01:35:49;;;;;;;1.95;1.00;;;10.40;70.70;;;;;;4997779;28;20464;-75
2021/05/13 01:38:20;;;;;;;2.33;1.05;;;10.40;70.70;;;;;;4985461;28;20033;-76
2021/05/13 01:41:00;;;;;;;0.98;0.80;;;10.40;70.70;;;;;;4997816;28;20030;-76
2021/05/13 01:43:29;;;;;;;1.67;0.70;;;10.40;70.90;;;;;;4997764;28;20069;-76
2021/05/13 01:45:55;;;;;;;1.75;1.05;;;10.40;71.00;;;;;;4997405;28;20493;-76
2021/05/13 01:48:21;;;;;;;2.00;0.93;;;10.30;70.90;;;;;;4997559;28;20026;-75
2021/05/13 01:50:49;;;;;;;1.65;0.70;;;10.40;71.30;;;;;;4997478;28;20034;-76
2021/05/13 01:53:14;;;;;;;2.22;1.00;;;10.40;71.30;;;;;;4997625;28;20026;-76
2021/05/13 01:55:40;;;;;;;2.00;0.85;;;10.30;71.20;;;;;;4997689;28;20053;-76
2021/05/13 01:58:07;;;;;;;1.60;0.80;;;10.30;71.00;;;;;;4997634;28;20030;-76
2021/05/13 02:00:36;;;;;;;2.70;1.10;;;10.30;70.90;;;;;;4997376;28;20033;-76
2021/05/13 02:03:04;;;;;;;1.95;0.90;;;10.30;71.60;;;;;;4997670;28;20034;-76
2021/05/13 02:05:30;;;;;;;2.25;1.00;;;10.30;71.50;;;;;;4997389;28;20098;-76
2021/05/13 02:07:57;;;;;;;2.17;1.00;;;10.30;71.20;;;;;;4997453;28;20104;-76
2021/05/13 02:10:23;;;;;;;2.33;1.13;;;10.30;71.00;;;;;;4997331;28;20555;-76
2021/05/13 02:12:49;;;;;;;1.45;0.82;;;10.40;71.00;;;;;;4997278;28;20501;-76
2021/05/13 02:15:19;;;;;;;3.20;1.50;;;10.40;71.20;;;;;;4999045;28;20034;-76
2021/05/13 02:17:45;;;;;;;2.15;1.23;;;10.40;71.30;;;;;;5000803;28;20057;-76
2021/05/13 02:20:15;;;;;;;2.92;1.15;;;10.40;71.20;;;;;;5000663;28;20027;-76
2021/05/13 02:22:41;;;;;;;2.28;1.20;;;10.50;71.40;;;;;;5000480;28;20030;-76
2021/05/13 02:25:09;;;;;;;2.50;1.10;;;10.40;71.20;;;;;;5000791;28;20405;-76
2021/05/13 02:27:35;;;;;;;2.05;0.90;;;10.50;71.00;;;;;;5000902;28;20105;-76
2021/05/13 02:30:02;;;;;;;3.03;1.05;;;10.50;71.00;;;;;;5000872;28;20117;-76
2021/05/13 02:32:27;;;;;;;2.33;0.95;;;10.50;70.90;;;;;;5000621;28;20030;-76
2021/05/13 02:34:53;;;;;;;2.15;0.90;;;10.40;70.70;;;;;;5000455;28;20032;-76
2021/05/13 02:37:19;;;;;;;1.67;0.90;;;10.50;70.70;;;;;;4972665;28;20026;-76
2021/05/13 02:39:48;;;;;;;1.95;1.10;;;10.50;71.30;;;;;;4998926;28;20022;-76
2021/05/13 02:42:14;;;;;;;1.77;1.02;;;10.40;70.80;;;;;;5000565;28;20022;-76
2021/05/13 02:44:40;;;;;;;2.10;1.00;;;10.40;71.10;;;;;;5000256;28;20027;-76
2021/05/13 02:47:06;;;;;;;2.70;1.02;;;10.40;71.00;;;;;;5000510;28;20106;-76
2021/05/13 02:49:32;;;;;;;1.80;1.20;;;10.50;71.00;;;;;;5000039;28;20073;-76
2021/05/13 02:51:58;;;;;;;1.27;0.80;;;10.50;70.90;;;;;;5000066;28;20026;-76
2021/05/13 02:54:23;;;;;;;1.60;0.93;;;10.50;70.90;;;;;;5000266;28;20037;-76
2021/05/13 02:56:49;;;;;;;2.80;1.30;;;10.50;71.00;;;;;;5000273;28;20076;-76
2021/05/13 02:59:16;;;;;;;2.55;1.17;;;10.50;71.30;;;;;;5000023;28;20037;-76
2021/05/13 03:01:42;;;;;;;2.20;1.25;;;10.50;72.00;;;;;;5000221;28;20383;-76
2021/05/13 03:04:08;;;;;;;3.13;1.30;;;10.50;71.90;;;;;;5000159;28;20061;-76
2021/05/13 03:06:36;;;;;;;2.75;1.10;;;10.50;72.30;;;;;;5000051;28;20022;-76
2021/05/13 03:09:02;;;;;;;1.70;1.10;;;10.50;71.30;;;;;;5000044;28;20035;-76
2021/05/13 03:11:28;;;;;;;1.95;0.98;;;10.50;71.30;;;;;;4999934;28;20057;-76
2021/05/13 03:13:56;;;;;;;1.95;1.00;;;10.40;71.00;;;;;;5000146;28;20030;-76
2021/05/13 03:16:23;;;;;;;2.15;1.05;;;10.40;71.10;;;;;;4999775;28;20037;-76
2021/05/13 03:18:51;;;;;;;1.83;0.98;;;10.40;71.20;;;;;;4999844;28;20031;-76
2021/05/13 03:21:32;;;;;;;2.03;0.98;;;10.40;71.00;;;;;;4999736;28;20503;-76
2021/05/13 03:26:37;;;;;;;1.48;0.90;;;10.40;71.30;;;;;;4998781;28;20030;-76
2021/05/13 03:29:03;;;;;;;1.45;0.80;;;10.40;71.20;;;;;;4999864;28;20026;-76
2021/05/13 03:31:29;;;;;;;2.05;0.90;;;10.40;71.40;;;;;;4999590;28;20037;-76
2021/05/13 03:33:55;;;;;;;1.60;0.80;;;10.40;71.30;;;;;;4999353;28;20022;-76
2021/05/13 03:36:20;;;;;;;1.67;0.88;;;10.40;71.60;;;;;;4996540;28;20528;-76
2021/05/13 03:38:46;;;;;;;2.17;0.90;;;10.40;71.60;;;;;;4990185;28;20018;-76
2021/05/13 03:41:12;;;;;;;2.00;1.00;;;10.40;71.80;;;;;;4999349;28;20054;-76
2021/05/13 03:43:37;;;;;;;1.65;0.90;;;10.40;72.50;;;;;;4999497;28;20031;-76
2021/05/13 03:46:03;;;;;;;1.77;0.82;;;10.40;72.30;;;;;;4999167;28;20117;-76
2021/05/13 03:48:29;;;;;;;2.28;0.93;;;10.40;72.00;;;;;;4999226;28;20034;-76
2021/05/13 03:50:55;;;;;;;1.88;0.90;;;10.40;72.00;;;;;;4999195;28;20037;-77
2021/05/13 03:53:20;;;;;;;1.90;0.93;;;10.40;73.60;;;;;;4999148;28;20469;-76
2021/05/13 03:55:51;;;;;;;2.60;1.13;;;10.40;74.80;;;;;;4999085;28;20086;-76
2021/05/13 03:58:17;;;;;;;2.80;0.90;;;10.40;74.10;;;;;;4999262;28;20032;-76
2021/05/13 04:03:09;;;;;;;2.67;1.00;;;10.40;74.10;;;;;;4998739;28;20037;-76
2021/05/13 04:05:36;;;;;;;1.98;0.80;;;10.40;75.00;;;;;;4998869;28;20045;-76
2021/05/13 04:08:03;;;;;;;1.85;0.95;;;10.40;75.10;;;;;;4999021;28;20374;-76
2021/05/13 04:10:29;;;;;;;2.22;1.13;;;10.40;74.50;;;;;;4998799;28;20027;-76
2021/05/13 04:12:57;;;;;;;1.92;0.82;;;10.40;74.30;;;;;;4998737;28;20397;-76
2021/05/13 04:15:22;;;;;;;2.40;0.90;;;10.40;73.60;;;;;;4998589;28;20029;-76
2021/05/13 04:17:48;;;;;;;2.47;1.20;;;10.40;73.80;;;;;;4998638;28;20077;-76
2021/05/13 04:20:14;;;;;;;2.13;0.95;;;10.40;73.40;;;;;;4981208;28;20026;-76
2021/05/13 04:22:40;;;;;;;1.45;0.90;;;10.40;73.70;;;;;;4998172;28;20058;-76
2021/05/13 04:25:06;;;;;;;1.33;0.95;;;10.40;73.20;;;;;;4998664;28;20027;-76
2021/05/13 04:27:32;;;;;;;1.63;0.80;;;10.50;73.00;;;;;;4998593;28;20144;-77
2021/05/13 04:29:58;;;;;;;1.27;0.70;;;10.50;72.70;;;;;;4998598;28;20050;-76
2021/05/13 04:32:24;;;;;;;2.97;1.13;;;10.50;73.80;;;;;;4998410;28;20026;-76
2021/05/13 04:34:49;;;;;;;2.72;1.00;;;10.50;74.00;;;;;;4998262;28;20046;-76
2021/05/13 04:37:15;;;;;;;1.42;0.70;;;10.50;74.50;;;;;;4988076;28;20037;-76
2021/05/13 04:39:41;;;;;;;1.73;0.80;;;10.50;73.80;;;;;;4996341;28;20049;-76
2021/05/13 04:42:08;;;;;;;0.73;0.50;;;10.60;73.30;;;;;;4998390;28;20030;-76
2021/05/13 04:44:35;;;;;;;2.45;0.90;;;10.60;73.20;;;;;;4998161;28;20038;-76
2021/05/13 04:47:17;;;;;;;2.20;1.00;;;10.60;74.20;;;;;;4998386;28;20022;-76
2021/05/13 04:49:43;;;;;;;1.58;0.90;;;10.60;73.70;;;;;;4986062;28;20458;-76
2021/05/13 04:52:09;;;;;;;2.13;0.90;;;10.70;74.70;;;;;;4997908;28;20069;-77
2021/05/13 04:54:35;;;;;;;2.17;1.10;;;10.70;74.10;;;;;;4998260;28;20030;-76
2021/05/13 04:57:01;;;;;;;2.50;0.90;;;10.70;74.10;;;;;;4998028;28;20496;-76
2021/05/13 04:59:27;;;;;;;1.73;0.75;;;10.70;73.70;;;;;;4998269;28;20026;-76
2021/05/13 05:01:52;;;;;;;1.42;0.68;;;10.70;73.70;;;;;;4997957;28;20499;-76
2021/05/13 05:04:18;;;;;;;2.75;1.10;;;10.70;74.00;;;;;;4997830;28;20129;-76
2021/05/13 05:06:44;;;;;;;1.05;0.70;;;10.70;74.00;;;;;;4998046;28;20478;-76
2021/05/13 05:09:10;;;;;;;2.17;0.93;;;10.70;73.80;;;;;;4998065;28;20493;-76
2021/05/13 05:11:35;;;;;;;2.08;1.00;;;10.80;74.00;;;;;;4997952;28;20385;-77
2021/05/13 05:14:02;;;;;;;1.52;0.77;;;10.80;74.30;;;;;;4997880;28;20053;-76
2021/05/13 05:16:28;;;;;;;2.10;1.30;;;10.80;75.70;;;;;;4997505;28;20043;-76
2021/05/13 05:18:54;;;;;;;2.17;0.90;;;10.80;75.40;;;;;;4997876;28;20076;-77
2021/05/13 05:21:20;;;;;;;1.52;0.73;;;10.80;74.60;;;;;;4997854;28;20030;-76
2021/05/13 05:23:46;;;;;;;2.17;0.90;;;10.90;75.00;;;;;;4997506;28;20026;-76
2021/05/13 05:26:12;;;;;;;1.65;0.80;;;10.90;74.30;;;;;;4997694;28;20496;-76
2021/05/13 05:28:38;;;;;;;2.30;0.90;;;10.90;74.40;;;;;;4998132;28;20492;-76
2021/05/13 05:31:03;;;;;;;2.00;0.80;;;10.90;74.40;;;;;;4980105;28;20023;-76
2021/05/13 05:33:29;;;;;;;2.38;1.05;;;11.00;74.60;;;;;;4997749;28;20396;-76
2021/05/13 05:35:55;;;;;;;2.08;0.90;;;11.00;75.40;;;;;;4997562;28;20397;-76
2021/05/13 05:38:21;;;;;;;2.10;0.73;;;11.00;75.40;;;;;;4985307;28;20429;-77
2021/05/13 05:40:47;;;;;;;2.65;0.93;;;11.00;76.10;;;;;;4997792;28;20034;-76
2021/05/13 05:43:14;;;;;;;1.92;0.90;;;11.00;75.60;;;;;;4997807;28;20050;-76
2021/05/13 05:45:40;;;;;;;1.83;0.90;;;11.00;75.90;;;;;;4997471;28;20030;-76
2021/05/13 05:48:06;;;;;;;1.98;0.90;;;11.10;76.00;;;;;;4997715;28;20030;-76
2021/05/13 05:50:37;;;;;;;1.35;0.77;;;11.10;75.70;;;;;;4999724;28;20030;-76
2021/05/13 05:53:04;;;;;;;1.20;0.80;;;11.10;76.40;;;;;;5001482;28;20110;-76
2021/05/13 05:55:31;;;;;;;1.88;0.80;;;11.20;76.40;;;;;;5001335;28;20019;-76
2021/05/13 05:57:59;;;;;;;1.85;0.77;;;11.20;76.80;;;;;;5001652;28;20026;-76
2021/05/13 06:00:25;;;;;;;1.75;0.85;;;11.20;76.00;;;;;;5001188;28;20018;-76
2021/05/13 06:02:51;;;;;;;2.05;0.90;;;11.20;76.00;;;;;;4983726;28;20049;-76
2021/05/13 06:05:18;;;;;;;2.22;0.88;;;11.20;76.40;;;;;;5001330;28;20035;-76
2021/05/13 06:07:44;;;;;;;1.52;0.80;;;11.30;76.30;;;;;;5001355;28;20033;-74
2021/05/13 06:10:12;;;;;;;1.98;0.80;;;11.30;76.60;;;;;;5001166;28;20066;-75
2021/05/13 06:12:38;;;;;;;3.58;0.95;;;11.30;76.40;;;;;;5001214;28;20022;-75
2021/05/13 06:15:07;;;;;;;1.98;0.90;;;11.40;76.80;;;;;;5000720;28;20049;-77
2021/05/13 06:17:32;;;;;;;2.20;0.82;;;11.40;76.60;;;;;;4983540;28;20050;-78
2021/05/13 06:20:01;;;;;;;1.70;0.70;;;11.40;75.90;;;;;;5000601;28;20097;-80
2021/05/13 06:22:28;;;;;;;2.00;0.88;;;11.40;76.10;;;;;;4982980;28;20425;-80
2021/05/13 06:24:54;;;;;;;1.50;0.90;;;11.50;77.00;;;;;;4983129;28;20027;-81
2021/05/13 06:27:21;;;;;;;1.75;0.70;;;11.50;76.70;;;;;;5001150;28;20026;-79
2021/05/13 06:29:48;;;;;;;3.30;1.10;;;11.50;77.00;;;;;;5000508;28;20018;-79
2021/05/13 06:32:14;;;;;;;2.35;0.93;;;11.60;77.60;;;;;;5000916;28;20022;-76
2021/05/13 06:34:39;;;;;;;1.67;0.80;;;11.60;76.60;;;;;;5000358;28;20118;-78
2021/05/13 06:37:05;;;;;;;1.60;0.88;;;11.60;76.70;;;;;;4974239;28;20026;-79
2021/05/13 06:39:34;;;;;;;2.30;0.80;;;11.70;76.40;;;;;;4996899;28;20058;-76
2021/05/13 06:42:02;;;;;;;1.48;0.70;;;11.70;76.70;;;;;;5000767;28;20022;-75
2021/05/13 06:44:28;;;;;;;2.58;0.90;;;11.80;76.80;;;;;;5000325;28;20034;-75
2021/05/13 06:46:53;;;;;;;2.33;0.80;;;11.80;76.50;;;;;;5000562;28;20018;-74
2021/05/13 06:49:19;;;;;;;1.77;0.82;;;11.90;77.00;;;;;;5000137;28;20034;-76
2021/05/13 06:51:46;;;;;;;2.28;0.93;;;12.00;76.20;;;;;;5000409;28;20025;-79
2021/05/13 06:54:12;;;;;;;2.50;1.00;;;12.00;77.20;;;;;;5000177;28;20029;-74
2021/05/13 06:56:39;;;;;;;1.90;1.10;;;12.10;77.10;;;;;;5000451;28;20022;-75
2021/05/13 06:59:05;;;;;;;2.10;0.88;;;12.20;76.80;;;;;;5000058;28;20523;-75
2021/05/13 07:01:31;;;;;;;3.03;0.90;;;12.30;77.10;;;;;;4998580;28;20050;-73
2021/05/13 07:03:57;;;;;;;2.63;1.00;;;12.40;76.80;;;;;;4982121;28;20037;-72
2021/05/13 07:06:24;;;;;;;2.30;0.80;;;12.50;76.70;;;;;;4998728;28;20444;-73
2021/05/13 07:08:49;;;;;;;4.20;1.92;;;12.60;76.60;;;;;;4998420;28;20437;-72
2021/05/13 07:11:15;;;;;;;3.13;1.33;;;12.60;76.20;;;;;;4998931;28;20065;-72
2021/05/13 07:13:41;;;;;;;1.88;0.90;;;12.70;76.20;;;;;;4999513;28;20125;-73
2021/05/13 07:16:07;;;;;;;3.08;1.67;;;12.80;76.00;;;;;;4998967;28;20101;-73
2021/05/13 07:18:33;;;;;;;3.20;1.85;;;12.80;75.40;;;;;;4998190;28;20037;-74
2021/05/13 07:20:59;;;;;;;2.70;1.67;;;12.90;75.50;;;;;;4982240;28;20019;-74
2021/05/13 07:23:25;;;;;;;3.20;2.17;;;12.90;75.30;;;;;;4982048;28;20080;-76
2021/05/13 07:25:52;;;;;;;2.65;1.08;;;13.00;75.30;;;;;;4999698;28;20030;-73
2021/05/13 07:28:18;;;;;;;1.90;0.90;;;13.00;75.20;;;;;;4999602;28;20084;-73
2021/05/13 07:30:44;;;;;;;3.05;1.10;;;13.10;74.90;;;;;;4999635;28;20018;-73
2021/05/13 07:33:10;;;;;;;2.67;1.20;;;13.10;74.80;;;;;;4999118;28;20027;-74
2021/05/13 07:35:36;;;;;;;1.98;1.10;;;13.10;74.50;;;;;;4999831;28;20030;-74
2021/05/13 07:38:03;;;;;;;1.95;0.80;;;13.20;74.80;;;;;;4971239;28;20515;-74
2021/05/13 07:40:29;;;;;;;2.47;0.85;;;13.20;74.70;;;;;;4999504;28;20025;-74
2021/05/13 07:42:55;;;;;;;2.75;0.90;;;13.20;74.50;;;;;;4999159;28;20574;-74
2021/05/13 07:45:22;;;;;;;2.83;1.17;;;13.20;74.20;;;;;;4999254;28;20026;-74
2021/05/13 07:47:48;;;;;;;1.83;0.82;;;13.20;74.10;;;;;;4981636;28;20031;-74
2021/05/13 07:50:17;;;;;;;1.65;0.70;;;13.20;74.20;;;;;;4981125;28;20140;-74
2021/05/13 07:52:45;;;;;;;1.77;0.70;;;13.20;74.00;;;;;;4997946;28;20069;-74
2021/05/13 07:55:12;;;;;;;1.77;0.88;;;13.20;73.70;;;;;;4977370;28;20026;-74
2021/05/13 07:57:38;;;;;;;1.27;0.80;;;13.20;74.10;;;;;;4998305;28;20029;-72
2021/05/13 08:00:08;;;;;;;2.70;1.05;;;13.20;73.90;;;;;;4978834;28;20038;-76
2021/05/13 08:02:34;;;;;;;4.15;2.15;;;13.20;73.80;;;;;;4999139;28;20109;-74
2021/05/13 08:05:00;;;;;;;3.80;3.20;;;13.20;73.80;;;;;;4997642;28;20069;-76
2021/05/13 08:07:26;;;;;;;3.33;1.80;;;13.20;73.90;;;;;;4980651;28;20564;-76
2021/05/13 08:09:52;;;;;;;1.80;0.75;;;13.20;74.00;;;;;;4964908;28;20062;-76
2021/05/13 08:12:18;;;;;;;1.65;0.70;;;13.20;74.10;;;;;;4994274;28;20022;-77
2021/05/13 08:14:44;;;;;;;1.58;0.80;;;13.20;74.20;;;;;;4997933;28;20113;-76
2021/05/13 08:17:11;;;;;;;2.58;0.85;;;13.20;74.10;;;;;;4994578;28;20112;-77
2021/05/13 08:19:38;;;;;;;2.42;0.95;;;13.30;74.50;;;;;;4998311;28;20030;-77
2021/05/13 08:22:04;;;;;;;2.25;0.80;;;13.30;74.50;;;;;;4998848;28;20019;-77
2021/05/13 08:24:30;;;;;;;1.80;0.75;;;13.40;74.30;;;;;;4996970;28;20036;-80
2021/05/13 08:26:58;;;;;;;2.08;0.70;;;13.50;74.30;;;;;;4998009;28;20093;-81
2021/05/13 08:29:25;;;;;;;2.67;0.73;;;13.70;75.30;;;;;;4979934;28;20489;-78
2021/05/13 08:31:50;;;;;;;2.38;1.02;;;14.30;76.20;;;;;;4980099;28;20528;-76
2021/05/13 08:34:17;;;;;;;2.30;1.40;;;15.00;75.30;;;;;;4997989;28;20026;-70
2021/05/13 08:36:42;;;;;;;3.67;1.80;;;15.40;73.90;;;;;;4992645;28;20053;-71
2021/05/13 08:39:08;;;;;;;4.22;3.17;;;15.90;70.30;;;;;;4990617;28;20491;-74
2021/05/13 08:41:36;;;;;;;3.20;2.20;;;16.10;69.80;;;;;;4997828;28;20026;-73
